Time;durP1;ratioP1;P1;durP2;ratioP2;P2;SDS_P1;SDS_P2;PMS_P1;PMS_P2;Temp;Humidity;BMP_temperature;BMP_pressure;BME280_temperature;BME280_humidity;BME280_pressure;Samples;Min_cycle;Max_cycle;Signal;HPM_P1;HPM_P2
2021/12/07 04:57:57;;;;;;;28.55;17.17;;;;;;;4.59;64.19;99890.41;5606080;31;78410;-56
2021/12/07 05:01:06;;;;;;;29.50;18.40;;;;;;;4.59;64.19;99890.41;5583720;32;34044;-57
2021/12/07 05:04:14;;;;;;;27.77;17.17;;;;;;;4.11;67.93;99902.69;5598529;31;33621;-57
2021/12/07 05:07:26;;;;;;;29.40;17.92;;;;;;;4.23;65.44;99903.31;5588946;31;33536;-57
2021/12/07 05:10:36;;;;;;;29.12;17.62;;;;;;;4.50;76.75;99907.03;5591572;31;33505;-57
2021/12/07 05:13:53;;;;;;;27.50;17.58;;;;;;;4.52;64.98;99915.56;5587106;31;34314;-57
2021/12/07 05:23:56;;;;;;;29.25;18.70;;;;;;;4.60;63.65;99907.13;5593561;31;33327;-57
2021/12/07 05:40:34;;;;;;;28.60;17.02;;;;;;;4.47;64.13;99911.00;5582234;32;33918;-57
2021/12/07 05:43:36;;;;;;;29.95;18.65;;;;;;;4.39;65.66;99908.78;5583259;31;33639;-57
2021/12/07 05:46:39;;;;;;;27.45;17.52;;;;;;;4.57;63.72;99908.44;5582981;32;33931;-57
2021/12/07 05:49:41;;;;;;;26.02;17.37;;;;;;;4.54;70.66;99906.28;5579329;32;33614;-57
2021/12/07 05:52:44;;;;;;;29.00;18.00;;;;;;;4.59;64.30;99901.00;5566522;32;33699;-57
2021/12/07 05:55:47;;;;;;;29.17;18.05;;;;;;;4.61;63.46;99890.97;5580543;31;34176;-57
2021/12/07 05:58:49;;;;;;;27.30;18.08;;;;;;;4.52;66.93;99889.81;5565340;32;34347;-57
2021/12/07 06:01:51;;;;;;;27.48;17.67;;;;;;;4.41;64.66;99890.78;5563089;32;34117;-57
2021/12/07 06:04:54;;;;;;;28.90;18.05;;;;;;;4.38;65.94;99896.59;5563153;32;34510;-57
2021/12/07 06:07:56;;;;;;;28.05;17.50;;;;;;;4.30;65.73;99899.66;5560835;32;34218;-57
2021/12/07 06:10:59;;;;;;;31.27;18.62;;;;;;;4.31;65.81;99888.03;5552432;32;33292;-57
2021/12/07 06:14:01;;;;;;;30.20;18.40;;;;;;;4.31;64.45;99888.03;5553796;32;33680;-57
2021/12/07 06:17:04;;;;;;;30.58;18.10;;;;;;;4.32;63.50;99885.09;5552525;32;34322;-57
2021/12/07 06:20:07;;;;;;;29.40;18.73;;;;;;;4.53;63.95;99890.59;5552523;31;33642;-57
2021/12/07 06:23:17;;;;;;;27.87;18.27;;;;;;;4.61;74.97;99895.47;5581406;31;33677;-57
2021/12/07 06:26:19;;;;;;;28.80;17.77;;;;;;;4.41;67.98;99896.88;5550275;32;33400;-56
2021/12/07 06:29:22;;;;;;;26.87;18.35;;;;;;;4.37;65.17;99887.00;5549787;32;33836;-57
2021/12/07 06:32:25;;;;;;;27.58;17.77;;;;;;;4.41;66.45;99891.56;5563279;31;34214;-57
2021/12/07 06:35:27;;;;;;;30.08;18.98;;;;;;;4.36;69.93;99893.38;5567948;32;33538;-57
2021/12/07 06:38:31;;;;;;;30.10;18.92;;;;;;;4.41;64.76;99898.75;5569530;32;33394;-57
2021/12/07 06:41:34;;;;;;;28.75;18.40;;;;;;;4.53;63.46;99907.31;5568988;32;33605;-57
2021/12/07 06:44:37;;;;;;;34.20;20.17;;;;;;;4.59;62.77;99903.66;5561031;32;34213;-57
2021/12/07 06:47:40;;;;;;;29.15;17.62;;;;;;;4.42;62.96;99903.78;5549819;32;34271;-57
2021/12/07 06:50:43;;;;;;;28.48;18.95;;;;;;;4.35;62.30;99907.69;5552782;32;34701;-57
2021/12/07 06:53:45;;;;;;;32.22;20.20;;;;;;;4.30;63.44;99908.44;5571930;31;34375;-57
2021/12/07 06:56:48;;;;;;;29.25;18.83;;;;;;;4.34;63.48;99906.06;5580217;31;34319;-57
2021/12/07 06:59:51;;;;;;;32.00;19.48;;;;;;;4.36;63.82;99910.09;5559900;31;33546;-56
2021/12/07 07:02:54;;;;;;;29.92;17.95;;;;;;;4.28;62.82;99904.44;5568479;32;33630;-56
2021/12/07 07:05:57;;;;;;;31.20;18.65;;;;;;;4.17;64.73;99909.66;5557757;32;33690;-57
2021/12/07 07:09:00;;;;;;;26.92;17.85;;;;;;;4.27;62.90;99911.56;5551164;31;33887;-57
2021/12/07 07:12:02;;;;;;;30.33;18.08;;;;;;;4.21;63.22;99905.44;5567297;32;34878;-56
2021/12/07 07:15:07;;;;;;;28.08;16.83;;;;;;;4.11;65.24;99915.94;5569327;32;34219;-57
2021/12/07 07:18:10;;;;;;;25.58;18.25;;;;;;;4.39;63.30;99911.44;5569015;32;33606;-57
2021/12/07 07:21:12;;;;;;;32.38;18.67;;;;;;;4.52;62.78;99911.03;5567029;32;33705;-57
2021/12/07 07:24:15;;;;;;;26.98;17.50;;;;;;;4.44;63.48;99919.47;5558096;31;33834;-56
2021/12/07 07:27:17;;;;;;;27.73;17.67;;;;;;;4.33;62.66;99917.75;5549576;32;34312;-57
2021/12/07 07:30:21;;;;;;;28.02;18.27;;;;;;;4.23;63.23;99921.09;5549678;32;33724;-57
2021/12/07 07:33:23;;;;;;;32.10;18.83;;;;;;;4.22;63.92;99925.59;5553062;32;33816;-57
2021/12/07 07:36:26;;;;;;;30.65;17.42;;;;;;;4.16;66.04;99928.44;5567361;32;33869;-57
2021/12/07 07:39:28;;;;;;;30.02;18.80;;;;;;;4.21;64.79;99934.63;5566265;32;33616;-56
2021/12/07 07:42:31;;;;;;;30.30;18.42;;;;;;;4.26;64.33;99930.41;5555055;32;33692;-56
2021/12/07 07:45:35;;;;;;;27.37;17.42;;;;;;;4.22;66.63;99930.13;5549185;32;33467;-57
2021/12/07 07:48:37;;;;;;;24.95;16.92;;;;;;;4.30;64.48;99931.50;5550065;32;33643;-57
2021/12/07 07:51:40;;;;;;;30.42;18.58;;;;;;;4.37;63.71;99937.41;5554020;32;33712;-57
2021/12/07 07:54:42;;;;;;;28.08;18.20;;;;;;;4.40;63.34;99935.09;5568808;32;33558;-57
2021/12/07 07:57:45;;;;;;;32.47;18.50;;;;;;;4.48;67.73;99942.59;5568469;31;33416;-57
2021/12/07 08:00:48;;;;;;;30.60;17.87;;;;;;;4.51;63.51;99938.66;5566287;32;33694;-57
2021/12/07 08:03:51;;;;;;;28.55;17.33;;;;;;;4.68;63.11;99943.84;5557504;32;33604;-56
2021/12/07 08:06:54;;;;;;;32.35;17.85;;;;;;;4.50;62.69;99941.53;5563483;31;33777;-57
2021/12/07 08:09:57;;;;;;;27.37;18.42;;;;;;;4.57;61.82;99939.47;5560051;32;33653;-57
2021/12/07 08:13:03;;;;;;;32.78;17.77;;;;;;;4.53;63.00;99949.78;5565064;32;33731;-57
2021/12/07 08:16:09;;;;;;;29.87;19.20;;;;;;;4.61;62.86;99956.53;5568377;32;34278;-57
2021/12/07 08:19:12;;;;;;;32.63;17.92;;;;;;;4.51;69.40;99969.69;5566779;32;33227;-57
2021/12/07 08:22:16;;;;;;;32.25;20.10;;;;;;;4.63;67.37;99965.03;5574047;31;34036;-57
2021/12/07 08:25:19;;;;;;;31.98;19.33;;;;;;;4.57;64.30;99958.88;5565232;32;33300;-57
2021/12/07 08:28:21;;;;;;;43.33;23.05;;;;;;;4.72;62.57;99964.31;5568578;32;33645;-57
2021/12/07 08:31:26;;;;;;;33.35;20.17;;;;;;;4.85;69.65;99968.44;5561460;32;33679;-57
2021/12/07 08:34:28;;;;;;;32.88;20.62;;;;;;;4.88;63.05;99962.63;5557622;32;33183;-57
2021/12/07 08:37:31;;;;;;;32.83;20.83;;;;;;;4.78;67.32;99961.72;5567557;32;34404;-57
2021/12/07 08:40:34;;;;;;;29.35;19.60;;;;;;;4.78;62.47;99959.88;5569272;31;33783;-57
2021/12/07 08:43:39;;;;;;;33.22;19.30;;;;;;;5.10;61.11;99959.06;5550452;31;33828;-57
2021/12/07 08:46:43;;;;;;;31.50;18.10;;;;;;;5.07;60.96;99955.06;5566754;32;34411;-57
2021/12/07 08:49:45;;;;;;;28.33;18.10;;;;;;;4.98;60.82;99955.78;5567665;32;34234;-57
2021/12/07 08:52:54;;;;;;;29.42;17.50;;;;;;;4.72;61.07;99955.56;5559890;32;33318;-57
2021/12/07 09:02:41;;;;;;;30.55;18.10;;;;;;;5.00;60.59;99937.72;5565388;32;33221;-57
2021/12/07 09:05:44;;;;;;;27.80;17.55;;;;;;;4.69;61.21;99932.16;5567903;32;33580;-57
2021/12/07 09:08:46;;;;;;;27.85;18.00;;;;;;;4.97;60.74;99935.56;5548374;32;34181;-57
2021/12/07 09:11:52;;;;;;;33.47;18.45;;;;;;;4.85;60.72;99928.59;5548074;32;34351;-57
2021/12/07 09:14:55;;;;;;;28.50;18.25;;;;;;;4.96;61.08;99924.16;5553130;32;33312;-57
2021/12/07 09:17:57;;;;;;;30.65;17.58;;;;;;;5.05;68.00;99921.84;5566214;32;33563;-58
2021/12/07 09:21:00;;;;;;;27.10;17.92;;;;;;;5.13;60.75;99927.50;5563119;32;33718;-57
2021/12/07 09:24:03;;;;;;;29.52;19.17;;;;;;;5.31;61.08;99922.81;5553583;32;33340;-57
2021/12/07 09:27:05;;;;;;;29.12;18.35;;;;;;;5.35;60.33;99930.00;5556184;32;33788;-57
2021/12/07 09:30:11;;;;;;;26.95;16.87;;;;;;;5.55;65.58;99916.03;5552036;32;33776;-57
2021/12/07 09:33:14;;;;;;;29.87;17.93;;;;;;;5.51;59.92;99911.50;5562403;32;33766;-57
2021/12/07 09:36:17;;;;;;;32.05;18.55;;;;;;;5.54;59.72;99906.47;5566350;32;34336;-57
2021/12/07 09:39:20;;;;;;;28.85;18.05;;;;;;;5.76;60.24;99898.34;5560775;32;33630;-57
2021/12/07 09:42:23;;;;;;;26.75;17.87;;;;;;;5.84;58.44;99895.16;5547779;32;33756;-57
2021/12/07 09:45:30;;;;;;;28.50;18.17;;;;;;;6.04;79.98;99897.13;5550302;32;33634;-57
2021/12/07 09:48:34;;;;;;;29.35;17.98;;;;;;;6.06;57.88;99884.38;5552105;32;34410;-57
2021/12/07 09:51:38;;;;;;;26.48;16.42;;;;;;;6.07;58.92;99885.97;5550478;32;33766;-57
2021/12/07 09:54:41;;;;;;;31.23;18.58;;;;;;;6.30;58.75;99891.88;5561324;32;33604;-57
2021/12/07 09:57:43;;;;;;;30.02;19.48;;;;;;;6.32;61.31;99885.22;5566699;32;34264;-57
2021/12/07 10:00:46;;;;;;;67.93;43.97;;;;;;;6.35;58.17;99884.69;5569334;32;33676;-57
2021/12/07 10:03:50;;;;;;;27.73;17.75;;;;;;;6.34;57.38;99883.09;5559401;32;33557;-57
2021/12/07 10:06:52;;;;;;;26.52;17.83;;;;;;;6.60;63.39;99880.47;5569719;31;33126;-57
2021/12/07 10:09:54;;;;;;;30.27;18.30;;;;;;;6.78;61.18;99879.91;5569298;31;33987;-57
2021/12/07 10:12:58;;;;;;;29.30;17.25;;;;;;;6.96;63.47;99875.94;5567692;32;34286;-58
2021/12/07 10:16:04;;;;;;;24.65;15.98;;;;;;;6.89;56.04;99861.25;5552737;32;33770;-57
2021/12/07 10:19:06;;;;;;;26.48;15.90;;;;;;;6.99;57.27;99867.41;5561003;32;33700;-57
2021/12/07 10:22:16;;;;;;;27.13;16.58;;;;;;;7.24;65.75;99863.06;5555824;32;33167;-57
2021/12/07 10:25:26;;;;;;;23.92;16.02;;;;;;;7.42;67.13;99846.50;5559739;32;33661;-57
2021/12/07 10:28:31;;;;;;;27.85;17.42;;;;;;;7.10;54.10;99849.50;5567399;32;33631;-57
2021/12/07 10:31:45;;;;;;;26.17;16.37;;;;;;;6.77;55.76;99849.03;5560060;32;33715;-57
2021/12/07 10:34:50;;;;;;;27.67;16.90;;;;;;;6.73;55.39;99849.84;5557477;31;33270;-56
2021/12/07 10:38:13;;;;;;;25.27;15.63;;;;;;;6.74;55.04;99852.22;5559088;32;33881;-57
2021/12/07 10:41:21;;;;;;;28.05;16.87;;;;;;;6.88;56.85;99852.47;5555718;32;33179;-57
2021/12/07 10:44:32;;;;;;;23.95;14.45;;;;;;;6.88;55.78;99849.81;5565524;31;33710;-56
2021/12/07 10:47:35;;;;;;;24.77;15.10;;;;;;;7.01;59.82;99851.13;5567385;32;33637;-57
2021/12/07 10:50:38;;;;;;;26.33;16.65;;;;;;;6.85;55.39;99845.00;5554061;32;33247;-57
2021/12/07 10:53:52;;;;;;;26.67;15.30;;;;;;;6.84;54.40;99846.09;5549771;32;34576;-57
2021/12/07 10:56:55;;;;;;;28.75;16.90;;;;;;;6.90;55.85;99844.22;5552999;32;33805;-57
2021/12/07 11:00:00;;;;;;;24.10;16.15;;;;;;;6.86;56.32;99848.50;5550199;32;33625;-57
2021/12/07 11:03:10;;;;;;;26.80;15.95;;;;;;;7.04;59.37;99842.59;5550943;31;32204;-57
2021/12/07 11:06:12;;;;;;;24.80;16.17;;;;;;;7.48;72.00;99837.41;5549394;32;33817;-57
2021/12/07 11:09:15;;;;;;;27.20;16.50;;;;;;;7.54;62.70;99832.84;5550712;32;34565;-57
2021/12/07 11:12:20;;;;;;;25.27;15.90;;;;;;;7.90;56.18;99832.69;5560976;32;33566;-57
2021/12/07 11:15:25;;;;;;;23.70;15.90;;;;;;;7.72;68.48;99837.56;5549676;32;34583;-57
2021/12/07 11:18:39;;;;;;;29.85;17.65;;;;;;;7.62;56.50;99826.94;5551011;32;33581;-57
2021/12/07 11:21:44;;;;;;;25.48;15.30;;;;;;;7.70;53.63;99826.37;5552329;32;32394;-57
2021/12/07 11:24:48;;;;;;;28.92;16.20;;;;;;;8.14;69.39;99833.59;5549273;32;33748;-57
2021/12/07 11:31:19;;;;;;;26.52;16.45;;;;;;;7.66;52.85;99822.66;5555663;32;33708;-57
2021/12/07 11:34:39;;;;;;;26.80;16.15;;;;;;;7.65;63.43;99825.59;5564703;32;33682;-57
2021/12/07 11:37:43;;;;;;;27.20;16.50;;;;;;;7.68;53.11;99825.03;5559621;32;33619;-57
2021/12/07 11:40:45;;;;;;;27.13;16.40;;;;;;;7.64;53.59;99832.00;5565616;32;33996;-57
2021/12/07 11:44:01;;;;;;;23.90;15.80;;;;;;;7.87;60.22;99826.00;5559867;32;33216;-57
2021/12/07 11:47:05;;;;;;;25.05;15.60;;;;;;;7.42;55.77;99832.38;5567244;32;33659;-57
2021/12/07 11:50:25;;;;;;;23.23;16.42;;;;;;;7.03;55.57;99836.47;5562893;32;33587;-57
2021/12/07 11:53:29;;;;;;;26.17;16.37;;;;;;;6.94;65.65;99840.75;5563538;32;33503;-57
2021/12/07 11:56:32;;;;;;;24.05;14.90;;;;;;;6.88;67.15;99833.81;5561457;32;34409;-56
2021/12/07 11:59:35;;;;;;;27.67;17.80;;;;;;;7.63;67.47;99833.09;5551113;31;34396;-57
2021/12/07 12:02:38;;;;;;;25.95;16.85;;;;;;;7.24;54.91;99829.22;5550989;32;33815;-57
2021/12/07 12:05:43;;;;;;;26.75;16.27;;;;;;;6.98;55.24;99838.34;5556004;31;33534;-57
2021/12/07 12:08:45;;;;;;;26.77;17.20;;;;;;;7.47;56.37;99829.69;5559558;31;34089;-57
2021/12/07 12:12:16;;;;;;;29.98;18.10;;;;;;;7.33;54.26;99831.34;5563753;32;33417;-57
2021/12/07 12:15:18;;;;;;;26.17;16.67;;;;;;;7.09;54.64;99826.59;5554588;31;33658;-56
2021/12/07 12:18:36;;;;;;;29.42;18.37;;;;;;;6.99;62.64;99829.28;5558862;31;33895;-56
2021/12/07 12:22:16;;;;;;;33.20;18.83;;;;;;;7.03;55.70;99828.47;5559591;32;34417;-56
2021/12/07 12:25:22;;;;;;;28.08;18.08;;;;;;;7.15;54.79;99825.53;5567502;32;33606;-57
2021/12/07 12:28:31;;;;;;;26.65;17.65;;;;;;;7.39;56.60;99823.03;5563010;32;34527;-57
2021/12/07 12:32:01;;;;;;;28.70;19.17;;;;;;;7.27;53.75;99831.34;5567873;32;34624;-57
2021/12/07 12:35:06;;;;;;;30.02;19.12;;;;;;;6.63;56.00;99850.63;5558642;31;33769;-57
2021/12/07 12:38:28;;;;;;;30.80;20.17;;;;;;;6.17;56.06;99855.91;5566311;31;33830;-57
2021/12/07 12:41:31;;;;;;;31.35;20.42;;;;;;;6.07;68.74;99861.22;5572648;31;34229;-56
2021/12/07 12:44:35;;;;;;;28.65;19.55;;;;;;;5.99;60.92;99857.19;5568154;31;34346;-56
2021/12/07 12:47:39;;;;;;;29.90;21.00;;;;;;;5.81;59.67;99860.31;5571986;31;34419;-56
2021/12/07 12:50:47;;;;;;;33.58;19.85;;;;;;;6.10;62.26;99858.84;5552962;31;33608;-57
2021/12/07 12:53:51;;;;;;;31.37;20.62;;;;;;;6.44;59.61;99869.00;5558293;32;33651;-57
2021/12/07 12:57:13;;;;;;;30.33;20.08;;;;;;;6.61;60.66;99870.59;5569096;31;34346;-57
2021/12/07 13:00:15;;;;;;;33.33;21.08;;;;;;;6.28;56.69;99870.81;5562395;32;33633;-57
2021/12/07 13:03:48;;;;;;;32.75;20.33;;;;;;;6.51;62.23;99880.19;5559849;32;33851;-57
2021/12/07 13:06:53;;;;;;;31.12;19.10;;;;;;;6.33;57.28;99894.81;5565198;31;33781;-57
2021/12/07 13:09:59;;;;;;;34.10;20.37;;;;;;;6.12;57.29;99891.31;5567173;31;34344;-57
2021/12/07 13:13:32;;;;;;;41.08;21.50;;;;;;;5.99;57.66;99886.44;5562592;31;34303;-57
2021/12/07 13:16:35;;;;;;;32.47;21.85;;;;;;;5.92;58.25;99890.41;5587151;31;33853;-57
2021/12/07 13:20:15;;;;;;;31.90;20.10;;;;;;;5.86;58.03;99886.91;5569014;31;33362;-56
2021/12/07 13:23:18;;;;;;;30.35;19.75;;;;;;;5.74;59.34;99881.03;5552208;32;34459;-56
2021/12/07 13:26:21;;;;;;;31.12;20.08;;;;;;;5.80;58.12;99874.69;5569599;32;34522;-57
2021/12/07 13:29:26;;;;;;;32.33;20.33;;;;;;;5.83;58.28;99874.97;5570187;32;34303;-57
2021/12/07 13:32:28;;;;;;;32.92;21.25;;;;;;;5.91;60.02;99878.97;5569836;32;34351;-57
2021/12/07 13:35:32;;;;;;;35.08;20.60;;;;;;;5.89;58.09;99876.56;5570319;32;33807;-57
2021/12/07 13:38:35;;;;;;;32.25;21.62;;;;;;;5.93;59.17;99884.88;5566633;32;33626;-57
2021/12/07 13:41:53;;;;;;;31.65;21.67;;;;;;;5.94;58.66;99878.47;5586307;31;33366;-57
2021/12/07 13:45:17;;;;;;;33.88;21.83;;;;;;;5.84;58.75;99875.75;5579007;31;33880;-57
2021/12/07 13:48:22;;;;;;;;;;;;;;;5.94;58.43;99880.34;5570616;32;33824;-57
2021/12/07 13:51:24;;;;;;;31.42;21.48;;;;;;;5.98;58.01;99873.44;5570228;32;33936;-57
2021/12/07 13:54:27;;;;;;;33.55;21.60;;;;;;;6.00;62.52;99882.75;5569996;32;33749;-57
2021/12/07 13:57:32;;;;;;;37.58;22.77;;;;;;;6.07;59.83;99888.63;5562169;32;34283;-57
2021/12/07 14:00:37;;;;;;;33.20;21.48;;;;;;;5.89;58.13;99887.22;5550681;32;33675;-57
2021/12/07 14:03:43;;;;;;;34.05;21.73;;;;;;;5.93;58.65;99886.69;5550696;32;33284;-57
2021/12/07 14:06:48;;;;;;;35.15;22.25;;;;;;;5.91;68.64;99897.59;5551637;32;33708;-57
2021/12/07 14:09:52;;;;;;;33.88;20.80;;;;;;;6.15;60.56;99887.31;5570006;32;34319;-56
2021/12/07 14:12:56;;;;;;;35.05;20.65;;;;;;;6.21;58.43;99891.56;5564064;32;33615;-57
2021/12/07 14:15:59;;;;;;;32.65;19.87;;;;;;;6.17;67.70;99895.84;5568560;32;34324;-57
2021/12/07 14:19:02;;;;;;;31.90;21.02;;;;;;;6.50;63.68;99899.09;5566250;31;34229;-57
2021/12/07 14:22:05;;;;;;;31.83;20.02;;;;;;;6.26;57.18;99899.59;5569636;32;33589;-56
2021/12/07 14:25:07;;;;;;;32.45;20.25;;;;;;;6.30;69.22;99899.88;5569862;32;33649;-57
2021/12/07 14:28:09;;;;;;;34.10;20.40;;;;;;;6.39;59.45;99905.44;5568124;32;33664;-57
2021/12/07 14:31:59;;;;;;;32.97;20.17;;;;;;;6.54;57.29;99914.28;5564525;31;34087;-57
2021/12/07 14:35:02;;;;;;;35.78;20.67;;;;;;;5.97;71.86;99912.53;5548654;32;33484;-57
2021/12/07 14:38:04;;;;;;;38.63;22.10;;;;;;;5.80;59.77;99911.91;5548637;32;33239;-57
2021/12/07 14:41:15;;;;;;;35.03;20.95;;;;;;;5.38;60.41;99904.78;5562448;31;33632;-57
2021/12/07 14:44:23;;;;;;;37.85;20.55;;;;;;;5.58;63.37;99914.72;5555568;31;33619;-57
2021/12/07 14:47:27;;;;;;;36.63;20.50;;;;;;;5.38;68.42;99918.06;5575156;31;34387;-57
2021/12/07 14:50:29;;;;;;;33.30;20.48;;;;;;;5.53;60.58;99923.50;5568412;32;33405;-57
2021/12/07 14:53:44;;;;;;;40.25;22.23;;;;;;;5.56;69.22;99924.81;5568783;32;33830;-57
2021/12/07 14:56:48;;;;;;;39.13;22.37;;;;;;;5.65;62.54;99921.41;5560847;32;34697;-57
2021/12/07 14:59:58;;;;;;;33.20;20.02;;;;;;;5.53;60.73;99931.47;5549166;32;34181;-57
2021/12/07 15:03:01;;;;;;;36.17;21.80;;;;;;;5.45;60.73;99934.59;5550403;32;33688;-57
2021/12/07 15:06:04;;;;;;;59.20;22.75;;;;;;;5.73;62.47;99930.78;5567066;32;33762;-57
2021/12/07 15:09:08;;;;;;;35.50;20.40;;;;;;;5.65;66.96;99929.38;5568554;31;33674;-56
2021/12/07 15:12:19;;;;;;;;;;;;;;;5.54;60.28;99938.38;5567855;32;33811;-57
2021/12/07 15:15:22;;;;;;;34.33;19.75;;;;;;;5.42;60.75;99943.09;5568179;31;34520;-57
2021/12/07 15:18:29;;;;;;;36.28;21.37;;;;;;;5.71;62.83;99938.19;5567181;32;33737;-57
2021/12/07 15:21:35;;;;;;;35.35;19.62;;;;;;;5.24;60.64;99931.00;5566823;31;33802;-56
2021/12/07 15:24:38;;;;;;;35.80;22.00;;;;;;;5.29;66.93;99943.53;5568349;32;33971;-57
2021/12/07 15:27:49;;;;;;;40.55;22.45;;;;;;;5.30;62.00;99945.16;5552452;32;33526;-57
2021/12/07 15:30:52;;;;;;;33.55;20.27;;;;;;;5.15;61.84;99943.16;5566629;32;34574;-57
2021/12/07 15:34:18;;;;;;;36.08;21.77;;;;;;;4.85;61.40;99941.06;5550451;32;33715;-57
2021/12/07 15:37:25;;;;;;;34.53;20.83;;;;;;;4.73;61.87;99946.53;5549696;32;34603;-57
2021/12/07 15:40:27;;;;;;;38.92;21.75;;;;;;;4.46;63.61;99949.19;5555756;31;33678;-57
2021/12/07 15:43:29;;;;;;;37.85;20.77;;;;;;;4.46;73.07;99952.66;5549835;32;33965;-57
2021/12/07 15:46:33;;;;;;;38.13;20.85;;;;;;;4.86;62.75;99953.28;5550830;31;33975;-57
2021/12/07 15:49:58;;;;;;;34.55;20.02;;;;;;;5.18;72.44;99951.44;5567850;32;33646;-56
2021/12/07 15:53:14;;;;;;;33.20;20.85;;;;;;;5.89;71.06;99956.37;5557830;31;33601;-57
2021/12/07 15:56:19;;;;;;;35.55;20.42;;;;;;;5.69;64.00;99955.47;5555211;32;34388;-57
2021/12/07 15:59:21;;;;;;;38.08;20.77;;;;;;;5.70;65.47;99949.09;5551176;32;33695;-57
2021/12/07 16:02:24;;;;;;;34.42;19.75;;;;;;;5.58;61.89;99947.44;5549711;32;34547;-57
2021/12/07 16:05:34;;;;;;;35.40;21.73;;;;;;;5.69;69.57;99945.63;5553080;31;33885;-57
2021/12/07 16:08:37;;;;;;;36.83;20.35;;;;;;;5.77;60.20;99947.00;5549356;32;34318;-57
2021/12/07 16:11:40;;;;;;;34.75;21.33;;;;;;;5.77;75.55;99945.16;5549417;32;34408;-57
2021/12/07 16:14:43;;;;;;;36.55;21.12;;;;;;;5.84;59.58;99943.06;5549374;32;33316;-56
2021/12/07 16:17:54;;;;;;;37.63;21.33;;;;;;;5.64;59.24;99951.72;5549196;32;33353;-57
2021/12/07 16:20:59;;;;;;;38.78;21.95;;;;;;;5.68;63.90;99956.53;5549341;32;33806;-56
2021/12/07 16:24:07;;;;;;;37.03;21.40;;;;;;;5.18;60.90;99953.28;5549407;32;34327;-56
2021/12/07 16:27:09;;;;;;;36.35;21.40;;;;;;;5.13;61.05;99955.91;5549272;32;33692;-57
2021/12/07 16:30:13;;;;;;;37.25;21.20;;;;;;;5.12;62.98;99962.28;5549096;32;34314;-56
2021/12/07 16:33:15;;;;;;;38.35;21.02;;;;;;;4.38;63.02;99963.72;5549173;32;33654;-56
2021/12/07 16:36:19;;;;;;;38.55;21.73;;;;;;;4.33;62.94;99953.03;5549352;32;33725;-56
2021/12/07 16:39:21;;;;;;;34.90;20.45;;;;;;;4.22;64.81;99965.41;5549178;32;34227;-57
2021/12/07 16:42:23;;;;;;;39.13;21.52;;;;;;;4.38;69.58;99960.28;5549066;32;33731;-57
2021/12/07 16:45:33;;;;;;;37.20;20.17;;;;;;;4.60;66.35;99962.87;5549036;32;33350;-56
2021/12/07 16:48:36;;;;;;;38.15;21.23;;;;;;;4.71;62.72;99961.94;5548617;32;33756;-56
2021/12/07 16:51:39;;;;;;;34.97;20.25;;;;;;;4.80;62.78;99957.78;5548544;32;33759;-56
2021/12/07 16:54:42;;;;;;;31.12;18.65;;;;;;;4.60;61.79;99957.56;5548928;32;33620;-56
2021/12/07 16:57:45;;;;;;;32.05;18.48;;;;;;;4.58;62.06;99962.34;5548186;32;34262;-56
2021/12/07 17:00:49;;;;;;;34.90;19.37;;;;;;;4.63;63.29;99965.81;5548729;32;34450;-56
2021/12/07 17:03:52;;;;;;;37.15;20.27;;;;;;;4.60;61.32;99971.66;5548750;32;34356;-56
2021/12/07 17:06:54;;;;;;;37.28;19.75;;;;;;;4.72;61.55;99971.50;5548651;32;33776;-56
2021/12/07 17:09:57;;;;;;;36.38;20.15;;;;;;;4.68;62.31;99976.50;5548575;32;33842;-56
2021/12/07 17:13:04;;;;;;;33.45;19.87;;;;;;;4.66;63.28;99975.16;5548375;32;33671;-57
2021/12/07 17:16:06;;;;;;;39.75;20.77;;;;;;;4.68;72.95;99971.19;5548352;32;33345;-57
2021/12/07 17:19:08;;;;;;;36.13;21.10;;;;;;;4.51;63.96;99969.69;5548304;32;34551;-56
2021/12/07 17:22:11;;;;;;;41.58;20.83;;;;;;;4.59;62.19;99970.03;5551419;32;34256;-57
2021/12/07 17:25:15;;;;;;;35.90;20.62;;;;;;;4.78;61.39;99967.84;5567870;32;34117;-57
2021/12/07 17:28:17;;;;;;;37.10;20.55;;;;;;;4.85;61.39;99972.94;5567792;32;33714;-57
2021/12/07 17:31:20;;;;;;;34.97;21.08;;;;;;;4.77;61.79;99976.88;5567995;32;34319;-57
2021/12/07 17:34:22;;;;;;;34.08;19.83;;;;;;;4.81;62.40;99963.87;5567616;32;33724;-57
2021/12/07 17:37:24;;;;;;;36.45;20.67;;;;;;;4.81;61.13;99967.34;5567727;32;33840;-57
2021/12/07 17:40:30;;;;;;;36.78;21.20;;;;;;;4.80;61.83;99964.91;5567603;32;33811;-57
2021/12/07 17:43:33;;;;;;;32.75;20.35;;;;;;;4.57;63.19;99972.16;5567687;32;34354;-56
